createdAt,value
2019-03-02T00:00:02.056Z,0
2019-03-02T00:10:00.590Z,0
2019-03-02T00:20:01.155Z,0
2019-03-02T00:30:01.257Z,0
2019-03-02T00:40:01.137Z,0
2019-03-02T00:50:02.285Z,0
2019-03-02T01:00:01.018Z,0
2019-03-02T01:10:00.873Z,0
2019-03-02T01:20:00.920Z,0
2019-03-02T01:30:01.165Z,0
2019-03-02T01:40:04.629Z,0
2019-03-02T01:50:00.891Z,0
2019-03-02T02:00:00.977Z,0
2019-03-02T02:10:01.182Z,0
2019-03-02T02:20:01.432Z,0
2019-03-02T02:30:01.304Z,0
2019-03-02T15:10:01.501Z,12953
2019-03-02T15:20:01.492Z,13310
2019-03-02T15:30:01.166Z,12163
2019-03-02T15:40:01.012Z,8190
2019-03-02T15:50:02.487Z,5440
2019-03-02T16:00:01.614Z,2147
2019-03-02T16:10:05.452Z,1903
2019-03-02T16:20:02.222Z,1743
2019-03-02T16:30:01.619Z,1170
2019-03-02T16:40:00.787Z,900
2019-03-02T16:50:01.177Z,400
2019-03-02T17:00:00.879Z,137
2019-03-02T17:10:01.138Z,40
2019-03-02T17:20:01.064Z,7
2019-03-02T17:30:01.111Z,0
2019-03-02T17:40:01.141Z,0
2019-03-02T17:50:00.800Z,0
2019-03-02T18:00:01.233Z,0
2019-03-02T18:10:01.204Z,0
2019-03-02T18:20:01.304Z,0
2019-03-02T18:30:02.029Z,0
2019-03-02T18:40:02.239Z,0
2019-03-02T18:50:02.783Z,0
2019-03-02T19:00:01.324Z,0
2019-03-02T19:10:04.038Z,0
2019-03-02T19:20:00.308Z,0
2019-03-02T19:30:00.405Z,0
2019-03-02T19:40:01.893Z,0
2019-03-02T19:50:01.033Z,0
2019-03-02T20:00:01.293Z,0
2019-03-02T20:10:00.932Z,0
2019-03-02T20:20:01.145Z,0
2019-03-02T20:30:00.956Z,0
2019-03-02T20:40:01.026Z,0
2019-03-02T20:50:01.062Z,0
2019-03-02T21:00:01.175Z,0
2019-03-02T21:10:01.070Z,0
2019-03-02T21:20:00.881Z,0
2019-03-02T21:30:01.006Z,0
2019-03-02T21:40:00.907Z,0
2019-03-02T21:50:01.227Z,0
2019-03-02T22:00:01.306Z,0
2019-03-02T22:10:01.120Z,0
2019-03-02T22:20:01.146Z,0
2019-03-02T22:30:00.434Z,0
2019-03-02T22:40:00.802Z,0
2019-03-02T22:50:01.685Z,0
2019-03-02T23:00:01.247Z,0
2019-03-02T23:10:01.143Z,0
2019-03-02T23:20:01.052Z,0
2019-03-02T23:30:01.339Z,0
2019-03-02T23:40:01.088Z,0
2019-03-02T23:50:00.863Z,0
